Tuesday, January 17, 2017, 3:54 AM EST

KSBY, Salisbury-wicomico Cty Reg

Location: Salisbury, MD, United States Lat: 38.333
Local Time: 3:54 AM EST ( 8:54 GMT) Lon: -75.5
Time Zone: US/Eastern Elev: 52 ft

Show me the last for .
Show Decoded

2017-01-17 03:09 METAR KSBY 170809Z AUTO 21003KT 10SM OVC014 04/02 A3027 RMK AO2 T00440022 TSNO =
2017-01-17 02:54 METAR KSBY 170754Z AUTO 19003KT 10SM OVC015 04/02 A3027 RMK AO2 SLP254 T00440022
                 TSNO =
2017-01-17 02:46 METAR KSBY 170746Z AUTO 20003KT 10SM OVC015 04/02 A3028 RMK AO2 T00440022 TSNO =
2017-01-17 02:24 METAR KSBY 170724Z AUTO 00000KT 10SM OVC014 04/02 A3027 RMK AO2 T00440022 TSNO =
2017-01-17 01:54 METAR KSBY 170654Z AUTO 00000KT 10SM OVC015 04/02 A3028 RMK AO2 RAB11E22 SLP255
                 P0000 T00440022 TSNO =
2017-01-17 00:54 METAR KSBY 170554Z AUTO 00000KT 10SM OVC021 05/01 A3030 RMK AO2 SLP262 T00500011
                 10056 20050 58021 TSNO =
2017-01-16 23:54 METAR KSBY 170454Z AUTO 00000KT 10SM OVC019 05/01 A3032 RMK AO2 SLP271 T00500011
                 400721011 TSNO =
2017-01-16 22:54 METAR KSBY 170354Z AUTO 00000KT 10SM OVC021 05/01 A3034 RMK AO2 SLP277 T00500006
                 TSNO =
2017-01-16 21:54 METAR KSBY 170254Z 00000KT 10SM OVC024 05/01 A3036 RMK AO2 SLP283 T00500006
                 56007 =
2017-01-16 20:54 METAR KSBY 170154Z 00000KT 10SM OVC026 05/00 A3037 RMK AO2 SLP286 T00500000 =
2017-01-16 19:54 METAR KSBY 170054Z 14003KT 10SM OVC027 06/00 A3037 RMK AO2 SLP286 T00560000 =
2017-01-16 19:26 METAR KSBY 170026Z 15004KT 10SM OVC028 06/00 A3037 RMK AO2 T00560000 =
2017-01-16 18:54 METAR KSBY 162354Z 16005KT 10SM OVC031 06/01 A3038 RMK AO2 SLP290 T00560006
                 10072 20056 58002 =
2017-01-16 17:54 METAR KSBY 162254Z 14004KT 10SM OVC031 06/M01 A3039 RMK AO2 SLP293 T00611006 =
2017-01-16 16:54 METAR KSBY 162154Z 00000KT 10SM OVC034 07/M02 A3039 RMK AO2 SLP294 T00671022 =
2017-01-16 15:54 METAR KSBY 162054Z 00000KT 10SM OVC038 07/M04 A3039 RMK AO2 SLP292 T00721039
                 56015 =
2017-01-16 14:54 METAR KSBY 161954Z 00000KT 10SM FEW039 OVC110 07/M04 A3039 RMK AO2 SLP295
                 T00721039 =
2017-01-16 13:54 METAR KSBY 161854Z 00000KT 10SM OVC038 06/M03 A3040 RMK AO2 SLP297 T00611028 =
2017-01-16 12:54 METAR KSBY 161754Z 00000KT 10SM OVC035 06/M03 A3043 RMK AO2 SLP308 T00561033
                 10056 20000 58020 =
2017-01-16 11:54 METAR KSBY 161654Z 00000KT 10SM OVC032 05/M03 A3045 RMK AO2 SLP315 T00501028 =
2017-01-16 10:54 METAR KSBY 161554Z 00000KT 10SM OVC032 04/M02 A3048 RMK AO2 SLP325 T00391022 =
2017-01-16 09:54 METAR KSBY 161454Z 07006KT 10SM OVC035 03/M02 A3049 RMK AO2 SLP328 T00281022
                 51014 =
2017-01-16 08:54 METAR KSBY 161354Z 04004KT 10SM OVC035 02/M03 A3048 RMK AO2 SLP325 T00171028 =
2017-01-16 07:54 METAR KSBY 161254Z 00000KT 10SM OVC033 01/M03 A3046 RMK AO2 SLP319 T00111028 =
2017-01-16 06:54 METAR KSBY 161154Z 00000KT 10SM BKN033 00/M03 A3045 RMK AO2 SLP314 T00001028
                 10028 21011 51003 =
2017-01-16 05:54 METAR KSBY 161054Z 00000KT 10SM CLR 00/M03 A3045 RMK AO2 SLP313 T00001028 =
2017-01-16 04:54 METAR KSBY 160954Z AUTO 03004KT 10SM CLR 01/M02 A3044 RMK AO2 SLP312 T00111022
                 TSNO =

Support USWX by starting your Amazon purchase here.